Time;durP1;ratioP1;P1;durP2;ratioP2;P2;SDS_P1;SDS_P2;PMS_P1;PMS_P2;Temp;Humidity;BMP_temperature;BMP_pressure;BME280_temperature;BME280_humidity;BME280_pressure;Samples;Min_cycle;Max_cycle;Signal;HPM_P1;HPM_P2
2023/07/06 00:02:37;;;;;;;4.97;2.30;;;;;;;15.29;100.00;100625.19;8302920;28;20453;-62
2023/07/06 00:06:38;;;;;;;5.22;2.25;;;;;;;15.31;100.00;100620.41;8304316;28;20042;-62
2023/07/06 00:10:39;;;;;;;4.35;2.33;;;;;;;15.20;100.00;100620.75;8309471;28;20433;-61
2023/07/06 00:14:40;;;;;;;8.27;2.40;;;;;;;15.11;100.00;100621.75;8309709;28;20111;-61
2023/07/06 00:18:41;;;;;;;7.45;2.78;;;;;;;15.06;100.00;100628.69;8320376;28;20041;-61
2023/07/06 00:22:42;;;;;;;3.45;3.08;;;;;;;14.99;100.00;100628.53;8323752;28;20045;-61
2023/07/06 00:26:42;;;;;;;6.85;2.80;;;;;;;14.92;100.00;100632.94;8310659;28;20271;-61
2023/07/06 00:34:48;;;;;;;4.20;2.67;;;;;;;14.88;100.00;100631.53;8309167;28;20052;-61
2023/07/06 00:38:48;;;;;;;7.00;2.88;;;;;;;14.68;100.00;100629.25;8305927;28;20041;-61
2023/07/06 00:42:49;;;;;;;5.47;2.60;;;;;;;14.79;100.00;100627.09;8311505;28;20133;-61
2023/07/06 00:46:49;;;;;;;4.93;3.00;;;;;;;14.72;100.00;100636.94;8310078;28;20045;-61
2023/07/06 00:50:58;;;;;;;5.18;2.63;;;;;;;14.26;100.00;100640.13;8310261;28;20451;-61
2023/07/06 00:55:01;;;;;;;4.32;2.83;;;;;;;13.97;100.00;100634.13;8309473;28;20041;-61
2023/07/06 00:59:05;;;;;;;5.90;2.90;;;;;;;14.07;100.00;100637.59;8310359;28;20046;-62
2023/07/06 01:03:07;;;;;;;4.37;2.97;;;;;;;14.08;100.00;100627.53;8307721;28;20113;-61
2023/07/06 01:07:12;;;;;;;9.20;2.97;;;;;;;14.17;100.00;100635.59;8310137;28;20045;-61
2023/07/06 01:11:14;;;;;;;4.68;2.58;;;;;;;14.31;100.00;100636.91;8309600;28;20040;-61
2023/07/06 01:15:16;;;;;;;6.15;2.67;;;;;;;14.38;100.00;100632.53;8287183;28;20038;-61
2023/07/06 01:19:54;;;;;;;4.32;2.70;;;;;;;14.47;100.00;100632.41;8275936;28;20046;-61
2023/07/06 01:24:15;;;;;;;3.80;2.63;;;;;;;14.46;100.00;100629.84;8308394;28;20570;-61
2023/07/06 01:28:45;;;;;;;7.25;3.08;;;;;;;14.51;100.00;100633.78;8304797;28;20380;-61
2023/07/06 01:32:55;;;;;;;7.43;2.10;;;;;;;14.57;100.00;100626.81;8301587;28;20060;-61
2023/07/06 01:37:02;;;;;;;5.47;2.08;;;;;;;14.67;100.00;100638.47;8307875;28;20045;-61
2023/07/06 01:41:06;;;;;;;5.88;2.33;;;;;;;14.64;98.46;100644.22;8309074;28;20030;-61
2023/07/06 01:45:10;;;;;;;4.05;2.22;;;;;;;14.63;97.59;100643.38;8308007;28;20037;-62
2023/07/06 01:49:11;;;;;;;4.57;2.03;;;;;;;14.56;97.35;100646.91;8307782;28;20056;-61
2023/07/06 01:53:24;;;;;;;6.75;1.70;;;;;;;14.66;96.94;100643.03;8307037;28;20038;-61
2023/07/06 01:57:32;;;;;;;4.15;2.03;;;;;;;14.71;95.73;100650.72;8308673;28;20041;-61
2023/07/06 02:01:40;;;;;;;7.50;2.05;;;;;;;14.69;96.06;100645.44;8303817;28;20388;-62
2023/07/06 02:05:44;;;;;;;4.22;1.95;;;;;;;14.58;95.76;100639.44;8304660;28;20037;-61
2023/07/06 02:09:46;;;;;;;4.32;1.83;;;;;;;14.45;96.90;100648.03;8308569;28;20073;-61
2023/07/06 02:13:47;;;;;;;7.15;2.75;;;;;;;14.20;98.21;100650.75;8306532;28;20045;-62
2023/07/06 02:17:49;;;;;;;6.40;2.13;;;;;;;13.83;100.00;100653.72;8308037;28;20042;-62
2023/07/06 02:21:50;;;;;;;6.75;2.42;;;;;;;13.61;100.00;100648.78;8307943;28;20049;-62
2023/07/06 02:25:53;;;;;;;7.78;2.58;;;;;;;13.47;100.00;100641.19;8305202;28;20510;-62
2023/07/06 02:29:54;;;;;;;11.32;3.25;;;;;;;13.03;100.00;100648.41;8303112;28;20128;-62
2023/07/06 02:33:54;;;;;;;10.20;3.13;;;;;;;12.67;100.00;100645.72;8306362;28;20038;-62
2023/07/06 02:37:54;;;;;;;7.90;2.83;;;;;;;12.60;100.00;100644.63;8306558;28;20109;-62
2023/07/06 02:41:56;;;;;;;7.10;3.05;;;;;;;12.52;100.00;100647.22;8309225;28;20038;-62
2023/07/06 02:45:58;;;;;;;6.28;3.25;;;;;;;12.65;100.00;100647.69;8306944;28;20115;-62
2023/07/06 02:49:58;;;;;;;9.80;3.67;;;;;;;12.61;100.00;100651.72;8308151;28;20048;-62
2023/07/06 02:53:59;;;;;;;7.32;3.20;;;;;;;12.43;100.00;100648.09;8308377;28;20040;-62
2023/07/06 02:57:59;;;;;;;4.53;2.97;;;;;;;12.45;100.00;100656.94;8307132;28;20077;-64
2023/07/06 03:02:00;;;;;;;7.75;3.53;;;;;;;12.50;100.00;100643.81;8304959;28;20045;-65
2023/07/06 03:06:02;;;;;;;4.38;3.00;;;;;;;12.46;100.00;100664.06;8306726;28;20455;-64
2023/07/06 03:10:05;;;;;;;5.38;3.35;;;;;;;12.41;100.00;100660.97;8304711;28;20483;-65
2023/07/06 03:14:06;;;;;;;9.05;3.63;;;;;;;12.45;100.00;100659.66;8306235;28;20141;-65
2023/07/06 03:18:07;;;;;;;7.28;3.47;;;;;;;12.43;100.00;100656.22;8308400;28;20044;-65
2023/07/06 03:22:07;;;;;;;7.47;3.33;;;;;;;12.27;100.00;100658.72;8306317;28;20052;-65
2023/07/06 03:26:09;;;;;;;4.85;3.03;;;;;;;12.14;100.00;100660.91;8307506;28;20034;-65
2023/07/06 03:30:10;;;;;;;3.20;2.60;;;;;;;12.05;100.00;100653.66;8302062;28;20550;-65
2023/07/06 03:34:10;;;;;;;9.07;3.65;;;;;;;12.09;100.00;100660.50;8304987;28;20038;-65
2023/07/06 03:38:12;;;;;;;6.32;3.30;;;;;;;12.11;100.00;100672.06;8308657;28;20038;-65
2023/07/06 03:42:14;;;;;;;15.75;4.10;;;;;;;11.82;100.00;100677.53;8304590;28;20034;-65
2023/07/06 03:46:15;;;;;;;12.07;3.70;;;;;;;11.71;100.00;100673.09;8313338;28;20045;-65
2023/07/06 03:50:17;;;;;;;6.90;3.45;;;;;;;12.00;100.00;100672.22;8312149;28;20029;-65
2023/07/06 03:54:18;;;;;;;6.85;2.63;;;;;;;12.01;100.00;100672.06;8313697;28;20072;-65
2023/07/06 03:58:21;;;;;;;12.07;2.92;;;;;;;12.04;100.00;100679.06;8313147;28;20041;-65
2023/07/06 04:02:21;;;;;;;11.00;4.07;;;;;;;12.14;100.00;100685.31;8294427;28;20046;-65
2023/07/06 04:06:24;;;;;;;6.32;2.63;;;;;;;12.14;100.00;100686.16;8305422;28;20091;-65
2023/07/06 04:10:24;;;;;;;10.50;2.97;;;;;;;12.13;100.00;100689.03;8311336;28;20411;-65
2023/07/06 04:14:25;;;;;;;10.73;3.45;;;;;;;12.21;100.00;100691.84;8306085;28;20056;-65
2023/07/06 04:18:25;;;;;;;7.93;3.30;;;;;;;12.31;100.00;100689.94;8306090;28;20436;-65
2023/07/06 04:22:25;;;;;;;6.85;2.95;;;;;;;12.49;100.00;100696.31;8308372;28;20057;-65
2023/07/06 04:26:26;;;;;;;10.20;2.88;;;;;;;12.63;100.00;100698.56;8309933;28;20041;-65
2023/07/06 04:30:27;;;;;;;16.50;3.70;;;;;;;12.70;100.00;100696.94;8305570;28;20049;-65
2023/07/06 04:34:30;;;;;;;10.85;3.00;;;;;;;12.67;100.00;100705.38;8308543;28;20033;-65
2023/07/06 04:38:30;;;;;;;10.82;2.70;;;;;;;12.73;100.00;100699.38;8314790;28;20460;-65
2023/07/06 04:42:31;;;;;;;14.13;3.55;;;;;;;12.74;100.00;100701.91;8313588;28;20044;-65
2023/07/06 04:46:31;;;;;;;7.30;2.85;;;;;;;12.87;100.00;100707.84;8309421;28;20125;-65
2023/07/06 04:50:32;;;;;;;6.10;2.90;;;;;;;13.38;100.00;100697.28;8311314;28;20577;-65
2023/07/06 04:54:33;;;;;;;19.83;4.20;;;;;;;13.75;100.00;100705.28;8309872;28;20041;-65
2023/07/06 04:58:34;;;;;;;15.85;3.22;;;;;;;13.85;100.00;100711.50;8310185;28;20038;-65
2023/07/06 05:02:34;;;;;;;11.38;2.70;;;;;;;14.10;100.00;100715.25;8306881;28;20157;-65
2023/07/06 05:06:35;;;;;;;11.43;3.10;;;;;;;14.30;99.52;100711.38;8309119;28;20502;-66
2023/07/06 05:10:36;;;;;;;12.32;3.40;;;;;;;14.36;99.72;100708.84;8312073;28;20029;-65
2023/07/06 05:14:36;;;;;;;6.85;2.80;;;;;;;14.52;97.36;100711.66;8305263;28;20050;-64
2023/07/06 05:18:37;;;;;;;5.85;2.47;;;;;;;14.53;97.45;100718.81;8308905;28;20045;-64
2023/07/06 05:22:39;;;;;;;12.25;3.25;;;;;;;14.66;98.02;100711.06;8308998;28;20068;-65
2023/07/06 05:26:40;;;;;;;12.55;2.97;;;;;;;14.98;97.80;100713.94;8306873;28;20073;-64
2023/07/06 05:30:42;;;;;;;10.82;2.58;;;;;;;15.12;96.24;100710.59;8304257;28;20128;-64
2023/07/06 05:34:43;;;;;;;12.30;2.95;;;;;;;15.35;95.24;100721.75;8305461;28;20462;-64
2023/07/06 05:38:43;;;;;;;10.82;2.17;;;;;;;15.58;95.29;100722.81;8305564;28;20053;-65
2023/07/06 05:42:44;;;;;;;2.92;1.95;;;;;;;15.90;93.08;100722.88;8310276;28;20107;-65
2023/07/06 05:46:44;;;;;;;6.38;2.28;;;;;;;16.17;93.07;100721.69;8308693;28;20045;-64
2023/07/06 05:50:45;;;;;;;10.02;2.58;;;;;;;16.29;91.16;100720.31;8308905;28;20087;-65
2023/07/06 05:54:46;;;;;;;5.60;1.98;;;;;;;16.65;90.71;100729.84;8308674;28;20041;-65
2023/07/06 05:58:47;;;;;;;8.05;1.83;;;;;;;16.62;89.35;100730.19;8308004;28;20069;-65
2023/07/06 06:02:47;;;;;;;8.90;2.47;;;;;;;16.62;90.89;100724.72;8302593;28;20045;-64
2023/07/06 06:06:51;;;;;;;9.15;2.08;;;;;;;16.76;90.99;100726.72;8302290;28;20045;-65
2023/07/06 06:10:52;;;;;;;4.78;1.65;;;;;;;17.11;90.51;100737.19;8310012;28;20064;-64
2023/07/06 06:14:53;;;;;;;15.05;2.03;;;;;;;17.84;88.24;100741.22;8306013;28;20061;-65
2023/07/06 06:18:55;;;;;;;8.93;1.73;;;;;;;18.42;79.12;100736.00;8307944;28;20103;-65
2023/07/06 06:22:57;;;;;;;11.23;2.13;;;;;;;18.35;79.42;100745.09;8307262;28;20418;-65
2023/07/06 06:27:00;;;;;;;7.38;1.60;;;;;;;18.82;77.00;100746.53;8308111;28;20045;-65
2023/07/06 06:31:00;;;;;;;13.95;2.20;;;;;;;18.96;78.22;100745.69;8303804;28;20410;-64
2023/07/06 06:35:02;;;;;;;10.30;2.17;;;;;;;19.15;76.20;100756.06;8306141;28;20068;-65
2023/07/06 06:39:04;;;;;;;7.97;2.13;;;;;;;18.97;74.92;100752.88;8306462;28;20426;-65
2023/07/06 06:43:04;;;;;;;7.82;1.67;;;;;;;19.02;76.78;100750.41;8308508;28;20477;-65
2023/07/06 06:47:05;;;;;;;4.13;1.50;;;;;;;19.29;74.16;100760.75;8306508;28;20037;-65
2023/07/06 06:51:09;;;;;;;5.22;1.60;;;;;;;19.48;75.77;100762.03;8308927;28;20087;-65
2023/07/06 06:55:10;;;;;;;;;;;;;;;19.95;73.04;100759.66;8306279;28;20038;-64
2023/07/06 06:59:11;;;;;;;11.73;2.30;;;;;;;19.94;73.82;100757.91;8307238;28;19922;-65
2023/07/06 07:03:13;;;;;;;8.48;1.52;;;;;;;20.28;72.92;100766.31;8303237;28;20048;-65
2023/07/06 07:07:14;;;;;;;11.02;1.63;;;;;;;20.80;70.37;100765.94;8305598;28;20065;-65
2023/07/06 07:11:18;;;;;;;3.90;0.90;;;;;;;20.68;68.74;100770.28;8303646;28;20092;-65
2023/07/06 07:15:19;;;;;;;5.53;1.13;;;;;;;20.91;67.37;100768.97;8307356;28;20108;-65
2023/07/06 07:19:21;;;;;;;3.13;0.85;;;;;;;21.01;66.87;100774.13;8309840;28;20045;-65
2023/07/06 07:23:23;;;;;;;4.88;1.10;;;;;;;20.96;67.35;100777.50;8314754;28;20045;-65
2023/07/06 07:27:25;;;;;;;1.55;0.80;;;;;;;21.06;67.58;100772.47;8315563;28;20514;-65
2023/07/06 07:31:27;;;;;;;7.32;1.58;;;;;;;21.16;66.55;100774.84;8303879;28;20104;-65
2023/07/06 07:35:27;;;;;;;6.30;1.63;;;;;;;20.88;67.63;100785.00;8314403;28;20034;-65
2023/07/06 07:39:28;;;;;;;6.40;1.70;;;;;;;21.22;68.30;100782.28;8312318;28;20045;-65
2023/07/06 07:43:32;;;;;;;3.58;1.60;;;;;;;21.38;67.35;100779.22;8312759;28;20038;-64
2023/07/06 07:47:32;;;;;;;6.70;2.00;;;;;;;21.46;66.26;100772.72;8308840;28;20124;-65
2023/07/06 07:51:32;;;;;;;9.23;2.37;;;;;;;21.38;66.27;100789.38;8312336;28;20038;-65
2023/07/06 07:55:35;;;;;;;8.23;2.83;;;;;;;21.74;65.68;100782.56;8314121;28;20657;-64
2023/07/06 07:59:35;;;;;;;3.63;1.60;;;;;;;21.66;68.10;100780.00;8309747;28;20646;-65
2023/07/06 08:03:36;;;;;;;6.82;1.83;;;;;;;22.00;65.33;100790.94;8310241;28;20037;-64
2023/07/06 08:07:37;;;;;;;4.45;1.05;;;;;;;22.30;63.29;100786.75;8311007;28;20052;-65
2023/07/06 08:11:39;;;;;;;5.90;1.52;;;;;;;22.04;63.27;100794.09;8312974;28;20448;-65
2023/07/06 08:15:40;;;;;;;7.60;1.90;;;;;;;21.83;62.04;100797.84;8309931;28;20037;-65
2023/07/06 08:19:40;;;;;;;3.53;1.38;;;;;;;22.41;63.54;100797.13;8312093;28;20069;-65
2023/07/06 08:23:49;;;;;;;5.28;1.38;;;;;;;22.28;61.71;100790.75;8312643;28;20049;-65
2023/07/06 08:27:49;;;;;;;3.55;1.20;;;;;;;22.39;64.33;100791.00;8311250;28;20444;-65
2023/07/06 08:31:49;;;;;;;4.28;1.50;;;;;;;22.77;60.65;100797.63;8292942;28;20045;-65
2023/07/06 08:35:50;;;;;;;15.57;3.53;;;;;;;22.73;59.29;100793.59;8309618;28;20788;-65
2023/07/06 08:39:51;;;;;;;5.10;0.80;;;;;;;23.26;58.02;100801.84;8312419;28;20048;-65
2023/07/06 08:43:51;;;;;;;4.03;0.85;;;;;;;23.43;56.39;100800.28;8308713;28;20042;-65
2023/07/06 08:47:52;;;;;;;2.53;0.75;;;;;;;23.33;58.16;100791.63;8311772;28;20514;-64
2023/07/06 08:51:53;;;;;;;4.15;1.20;;;;;;;23.46;57.30;100803.47;8310849;28;20037;-65
2023/07/06 08:55:57;;;;;;;2.83;0.95;;;;;;;23.71;58.17;100796.16;8310208;28;20040;-65
2023/07/06 08:59:57;;;;;;;4.32;1.13;;;;;;;23.77;55.79;100794.44;8307029;28;20046;-64
2023/07/06 09:04:06;;;;;;;2.17;0.75;;;;;;;24.00;54.11;100794.78;8309186;28;20533;-65
2023/07/06 09:08:10;;;;;;;1.92;0.90;;;;;;;23.92;55.68;100797.75;8310533;28;20044;-65
2023/07/06 09:12:17;;;;;;;6.88;0.88;;;;;;;23.80;52.95;100791.22;8310022;28;20507;-65
2023/07/06 09:16:20;;;;;;;1.05;0.47;;;;;;;23.81;52.48;100798.44;8310573;28;20479;-65
2023/07/06 09:20:21;;;;;;;1.67;0.45;;;;;;;23.82;54.62;100797.38;8310359;28;20397;-65
2023/07/06 09:24:27;;;;;;;2.03;0.70;;;;;;;24.04;54.52;100796.03;8307363;28;20092;-65
2023/07/06 09:28:29;;;;;;;1.60;0.50;;;;;;;23.62;51.87;100804.91;8306350;28;20045;-65
2023/07/06 09:32:32;;;;;;;2.13;0.47;;;;;;;23.69;52.85;100790.00;8303040;28;20046;-65
2023/07/06 09:36:33;;;;;;;2.95;0.63;;;;;;;23.84;53.60;100800.75;8308435;28;20033;-65
2023/07/06 09:40:34;;;;;;;7.85;1.13;;;;;;;24.02;51.40;100787.97;8305033;28;20129;-65
2023/07/06 09:44:35;;;;;;;1.75;0.47;;;;;;;24.50;53.23;100807.63;8301741;28;20072;-65
2023/07/06 09:48:38;;;;;;;1.77;0.55;;;;;;;24.60;50.69;100802.44;8308658;28;20041;-65
2023/07/06 09:52:40;;;;;;;3.17;1.17;;;;;;;24.82;50.93;100806.53;8304943;28;20042;-65
2023/07/06 09:56:40;;;;;;;1.35;0.40;;;;;;;24.86;49.17;100796.75;8307929;28;20362;-65
2023/07/06 10:00:48;;;;;;;3.17;0.50;;;;;;;25.01;51.05;100791.72;8304889;28;20120;-65
2023/07/06 10:05:11;;;;;;;6.72;1.02;;;;;;;26.16;49.06;100800.78;8306597;28;20046;-65
2023/07/06 10:09:20;;;;;;;2.83;0.90;;;;;;;26.80;45.26;100792.56;8296777;28;20426;-66
2023/07/06 10:14:00;;;;;;;4.10;0.80;;;;;;;29.05;46.19;100798.44;8332375;28;20099;-66
2023/07/06 10:18:10;;;;;;;4.55;0.50;;;;;;;28.11;45.05;100795.56;8306316;28;20045;-65
2023/07/06 10:22:31;;;;;;;18.77;1.77;;;;;;;29.49;42.88;100794.63;8301719;28;20042;-65
2023/07/06 10:26:34;;;;;;;3.53;0.50;;;;;;;30.32;42.02;100792.41;8296588;28;20107;-63
2023/07/06 10:30:38;;;;;;;4.32;0.73;;;;;;;31.17;39.19;100802.66;8302736;28;20062;-63
2023/07/06 10:34:48;;;;;;;3.40;0.30;;;;;;;31.96;37.90;100793.94;8305044;28;20045;-63
2023/07/06 10:38:48;;;;;;;2.00;0.50;;;;;;;31.96;37.63;100799.53;8305838;28;20140;-63
2023/07/06 10:43:11;;;;;;;1.33;0.50;;;;;;;31.51;37.70;100798.44;8304678;28;20169;-63
2023/07/06 10:51:48;;;;;;;0.95;0.47;;;;;;;31.22;38.19;100797.13;8390805;27;20416;-64
2023/07/06 10:56:04;;;;;;;2.47;0.50;;;;;;;31.01;37.68;100792.50;8383723;27;20047;-65
2023/07/06 11:00:16;;;;;;;2.97;0.60;;;;;;;31.42;37.21;100800.06;8372416;27;20410;-61
2023/07/06 11:04:43;;;;;;;5.93;1.25;;;;;;;32.39;36.24;100801.09;8384452;27;20047;-58
2023/07/06 11:09:11;;;;;;;2.67;1.27;;;;;;;31.52;38.79;100811.31;8382185;27;20056;-61
2023/07/06 11:13:16;;;;;;;6.22;0.90;;;;;;;32.89;36.48;100806.78;8381403;27;20411;-56
2023/07/06 11:17:27;;;;;;;37.83;4.65;;;;;;;32.27;37.21;100796.84;8381849;27;20559;-55
2023/07/06 11:21:50;;;;;;;6.72;1.40;;;;;;;32.45;36.15;100797.19;8382800;28;20399;-56
2023/07/06 11:25:52;;;;;;;42.65;3.50;;;;;;;30.78;38.23;100798.44;8379852;28;20067;-58
2023/07/06 11:29:59;;;;;;;4.95;0.73;;;;;;;27.96;41.76;100796.09;8378471;27;20048;-56
2023/07/06 11:34:23;;;;;;;6.80;1.02;;;;;;;29.17;41.14;100806.69;8380334;27;20044;-57
2023/07/06 11:39:05;;;;;;;2.40;1.00;;;;;;;27.57;43.35;100804.41;8372996;28;20033;-53
2023/07/06 11:48:10;;;;;;;42.60;4.55;;;;;;;25.97;46.36;100807.44;8302186;28;20405;-53
2023/07/06 11:52:14;;;;;;;14.32;1.20;;;;;;;28.44;43.30;100801.22;8299470;28;20046;-57
2023/07/06 11:56:20;;;;;;;1.15;0.50;;;;;;;32.08;38.73;100782.53;8299178;28;20033;-55
2023/07/06 12:04:39;;;;;;;4.18;1.02;;;;;;;30.90;38.35;100796.31;8314998;27;20370;-57
2023/07/06 12:08:40;;;;;;;19.38;2.05;;;;;;;31.76;39.58;100790.19;8316455;28;20491;-56
2023/07/06 12:12:44;;;;;;;5.93;1.23;;;;;;;31.50;37.97;100791.19;8312647;28;20087;-56
2023/07/06 12:16:44;;;;;;;4.72;1.08;;;;;;;30.51;40.14;100792.84;8312215;28;20038;-55
2023/07/06 12:20:49;;;;;;;9.60;1.42;;;;;;;28.49;43.08;100787.44;8315504;28;20092;-57
2023/07/06 12:24:52;;;;;;;17.75;1.67;;;;;;;27.03;44.73;100797.28;8313815;28;20096;-56
2023/07/06 12:28:56;;;;;;;11.17;1.27;;;;;;;26.25;46.60;100796.63;8314510;28;20050;-56
2023/07/06 12:32:57;;;;;;;9.35;1.13;;;;;;;25.78;48.08;100797.47;8314823;28;20049;-58
2023/07/06 12:37:00;;;;;;;4.25;0.95;;;;;;;25.62;48.31;100800.00;8314430;28;20072;-58
2023/07/06 12:41:20;;;;;;;1.87;0.80;;;;;;;25.67;48.29;100789.09;8314342;28;20458;-58
2023/07/06 12:45:22;;;;;;;1.83;0.75;;;;;;;25.76;47.46;100794.06;8311537;28;20164;-58
2023/07/06 12:49:23;;;;;;;1.65;0.80;;;;;;;26.36;48.24;100779.19;8311508;28;20408;-58
2023/07/06 12:53:31;;;;;;;3.28;0.85;;;;;;;26.34;46.33;100784.09;8315267;28;20046;-58
2023/07/06 12:57:36;;;;;;;2.53;0.88;;;;;;;25.98;48.47;100781.44;8310947;28;20407;-58
2023/07/06 13:01:38;;;;;;;2.38;0.90;;;;;;;26.11;48.23;100764.63;8311173;28;20026;-59
2023/07/06 13:05:39;;;;;;;6.53;1.17;;;;;;;26.15;48.14;100771.41;8315060;28;20574;-58
2023/07/06 13:09:41;;;;;;;7.50;1.30;;;;;;;26.30;50.03;100774.56;8308374;28;20404;-59
2023/07/06 13:13:43;;;;;;;6.47;1.15;;;;;;;25.82;48.97;100770.13;8305418;28;20044;-59
2023/07/06 13:17:56;;;;;;;33.30;4.43;;;;;;;25.79;49.56;100768.66;8292750;28;20041;-65
2023/07/06 13:21:58;;;;;;;14.63;1.77;;;;;;;25.94;49.09;100771.00;8292497;28;20180;-65
2023/07/06 13:25:59;;;;;;;4.43;1.48;;;;;;;25.95;48.62;100776.31;8291042;28;20049;-67
2023/07/06 13:29:59;;;;;;;15.65;2.10;;;;;;;25.64;49.89;100772.94;8291587;28;20037;-66
2023/07/06 13:34:00;;;;;;;6.78;1.83;;;;;;;25.86;48.74;100768.59;8291720;28;20041;-65
2023/07/06 13:38:04;;;;;;;4.05;1.27;;;;;;;25.88;47.93;100769.19;8291614;28;20129;-65
2023/07/06 13:42:04;;;;;;;13.98;2.22;;;;;;;25.73;48.17;100769.59;8292518;28;20407;-64
2023/07/06 13:46:09;;;;;;;1.50;0.70;;;;;;;26.11;47.18;100759.09;8292164;28;20096;-65
2023/07/06 13:50:11;;;;;;;54.03;4.97;;;;;;;26.33;49.41;100757.47;8290913;28;20075;-65
2023/07/06 13:54:12;;;;;;;21.98;2.35;;;;;;;26.59;48.51;100762.56;8291434;28;20042;-65
2023/07/06 13:58:14;;;;;;;8.38;1.92;;;;;;;26.25;47.06;100766.13;8287096;28;20041;-64
2023/07/06 14:02:14;;;;;;;5.72;1.00;;;;;;;26.14;47.61;100755.00;8291515;28;20096;-64
2023/07/06 14:06:14;;;;;;;9.43;1.25;;;;;;;26.13;48.31;100751.38;8290149;28;20054;-64
2023/07/06 14:10:19;;;;;;;3.53;0.90;;;;;;;26.34;50.31;100759.16;8291045;28;20054;-64
2023/07/06 14:14:20;;;;;;;3.30;1.30;;;;;;;26.12;50.20;100755.22;8290609;28;20277;-64
2023/07/06 14:18:23;;;;;;;3.20;1.20;;;;;;;26.13;47.83;100751.38;8290817;28;20054;-65
2023/07/06 14:22:23;;;;;;;1.70;0.93;;;;;;;25.77;47.00;100756.13;8298028;28;20042;-65
2023/07/06 14:26:25;;;;;;;2.72;1.05;;;;;;;25.76;47.91;100760.81;8288799;28;20131;-65
2023/07/06 14:30:30;;;;;;;3.25;1.45;;;;;;;25.38;47.79;100763.03;8285520;28;20026;-65
2023/07/06 14:34:30;;;;;;;1.48;0.95;;;;;;;25.60;48.67;100760.59;8281814;28;20049;-64
2023/07/06 14:38:31;;;;;;;3.17;1.10;;;;;;;25.28;48.52;100759.88;8288908;28;20496;-65
2023/07/06 14:42:31;;;;;;;4.30;0.77;;;;;;;25.26;49.34;100755.66;8286814;28;20617;-65
2023/07/06 14:46:32;;;;;;;3.83;1.10;;;;;;;25.10;47.63;100762.66;8290046;28;20053;-65
2023/07/06 14:50:32;;;;;;;3.63;1.30;;;;;;;25.37;47.72;100761.31;8285169;28;20093;-65
2023/07/06 14:54:33;;;;;;;1.80;1.17;;;;;;;25.45;46.84;100763.78;8290510;28;20308;-65
2023/07/06 14:58:33;;;;;;;3.28;1.08;;;;;;;25.07;46.68;100754.81;8289909;28;20053;-65
2023/07/06 15:02:34;;;;;;;2.17;0.87;;;;;;;25.35;48.62;100757.94;8260277;28;20061;-65
2023/07/06 15:06:34;;;;;;;2.35;0.90;;;;;;;25.60;48.47;100769.78;8286952;28;20280;-65
2023/07/06 15:10:35;;;;;;;3.58;1.38;;;;;;;25.76;49.96;100760.81;8286604;28;20048;-65
2023/07/06 15:14:35;;;;;;;5.35;1.30;;;;;;;25.48;47.75;100762.47;8288010;28;20478;-65
2023/07/06 15:18:36;;;;;;;4.40;1.27;;;;;;;25.44;49.71;100756.56;8287859;28;20404;-65
2023/07/06 15:22:38;;;;;;;3.33;1.03;;;;;;;25.30;47.49;100754.97;8287870;28;20048;-65
2023/07/06 15:26:38;;;;;;;2.95;0.95;;;;;;;25.28;49.69;100745.22;8287125;28;20778;-65
2023/07/06 15:30:38;;;;;;;5.40;1.67;;;;;;;25.43;47.93;100749.31;8286656;28;20081;-65
2023/07/06 15:34:39;;;;;;;8.60;1.50;;;;;;;25.49;47.28;100744.78;8287228;28;20096;-65
2023/07/06 15:38:40;;;;;;;4.38;1.30;;;;;;;25.35;49.66;100741.34;8287119;28;20033;-65
2023/07/06 15:42:40;;;;;;;4.25;1.20;;;;;;;25.18;48.46;100740.19;8286229;28;20096;-65
2023/07/06 15:46:40;;;;;;;3.23;1.17;;;;;;;25.26;48.83;100742.69;8286775;28;20089;-65
2023/07/06 15:50:42;;;;;;;3.53;1.27;;;;;;;25.28;48.02;100729.44;8287302;28;20375;-65
2023/07/06 15:54:42;;;;;;;4.68;1.40;;;;;;;25.37;49.31;100725.31;8286779;28;20284;-65
2023/07/06 15:58:56;;;;;;;5.82;2.70;;;;;;;25.27;48.58;100729.66;8261705;28;20191;-65
2023/07/06 16:02:57;;;;;;;;;;;;;;;25.18;48.22;100726.38;8267273;28;20046;-65
2023/07/06 16:06:57;;;;;;;3.60;1.15;;;;;;;24.87;50.43;100732.03;8284884;28;19933;-65
2023/07/06 16:10:58;;;;;;;5.75;1.20;;;;;;;24.78;51.56;100727.88;8284291;28;20529;-65
2023/07/06 16:14:58;;;;;;;2.67;1.10;;;;;;;24.89;48.88;100724.34;8278332;28;20452;-65
2023/07/06 16:18:58;;;;;;;3.83;2.08;;;;;;;25.01;48.44;100728.06;8279849;28;20041;-65
2023/07/06 16:22:59;;;;;;;4.40;1.60;;;;;;;24.85;49.98;100728.63;8283750;28;20129;-65
2023/07/06 16:26:59;;;;;;;8.10;3.20;;;;;;;24.79;48.99;100701.88;8285397;28;20046;-65
2023/07/06 16:31:00;;;;;;;4.03;2.25;;;;;;;24.86;49.38;100719.28;8284678;28;20137;-65
2023/07/06 16:35:01;;;;;;;4.88;1.92;;;;;;;25.05;48.94;100723.75;8281156;28;20473;-65
2023/07/06 16:39:02;;;;;;;2.38;1.20;;;;;;;24.78;49.04;100719.56;8284796;28;20046;-65
2023/07/06 16:43:02;;;;;;;3.15;1.25;;;;;;;24.94;48.69;100721.72;8285073;28;20136;-65
2023/07/06 16:47:02;;;;;;;2.88;1.60;;;;;;;25.03;50.05;100712.06;8284824;28;20049;-65
2023/07/06 16:51:04;;;;;;;3.75;1.63;;;;;;;24.84;50.06;100718.66;8290085;28;20056;-65
2023/07/06 16:55:05;;;;;;;3.30;1.25;;;;;;;24.71;50.08;100713.25;8286106;28;20068;-65
2023/07/06 16:59:06;;;;;;;2.45;1.30;;;;;;;24.74;49.59;100721.09;8290558;28;20053;-65
2023/07/06 17:03:06;;;;;;;6.45;1.42;;;;;;;24.68;50.18;100716.47;8290172;28;20511;-65
2023/07/06 17:07:07;;;;;;;3.85;1.42;;;;;;;24.84;50.58;100724.19;8290067;28;20049;-65
2023/07/06 17:11:10;;;;;;;1.95;1.20;;;;;;;24.78;50.21;100719.56;8286705;28;20034;-65
2023/07/06 17:15:10;;;;;;;1.60;1.20;;;;;;;24.67;49.26;100725.84;8290725;28;20466;-65
2023/07/06 17:19:11;;;;;;;2.27;1.50;;;;;;;24.57;50.92;100728.22;8289260;28;20064;-65
2023/07/06 17:23:11;;;;;;;3.90;1.30;;;;;;;24.53;51.45;100738.06;8290087;28;20798;-65
2023/07/06 17:27:12;;;;;;;3.10;1.17;;;;;;;24.57;49.87;100731.00;8284836;28;20083;-65
2023/07/06 17:31:14;;;;;;;4.43;1.77;;;;;;;24.42;50.55;100731.34;8289973;28;20100;-65
2023/07/06 17:35:15;;;;;;;3.30;1.00;;;;;;;24.38;50.65;100732.03;8289701;28;20447;-65
2023/07/06 17:39:15;;;;;;;6.15;1.63;;;;;;;24.61;52.30;100737.78;8288186;28;20124;-65
2023/07/06 17:43:15;;;;;;;2.13;1.17;;;;;;;24.69;50.88;100740.28;8269928;28;20047;-65
2023/07/06 17:47:16;;;;;;;3.13;1.53;;;;;;;24.57;50.87;100742.91;8286157;28;20076;-65
2023/07/06 17:51:16;;;;;;;2.05;1.27;;;;;;;24.43;50.99;100743.25;8283871;28;20356;-65
2023/07/06 17:55:20;;;;;;;3.38;1.20;;;;;;;24.28;51.31;100737.22;8284269;28;20627;-65
2023/07/06 17:59:21;;;;;;;4.10;1.73;;;;;;;24.22;52.08;100738.09;8277828;28;20046;-65
2023/07/06 18:03:22;;;;;;;3.03;1.45;;;;;;;24.14;52.31;100738.34;8284452;28;20424;-65
2023/07/06 18:07:22;;;;;;;2.50;1.25;;;;;;;24.08;52.26;100737.34;8282671;28;20034;-65
2023/07/06 18:11:22;;;;;;;2.90;1.00;;;;;;;24.08;52.20;100747.53;8285113;28;20057;-65
2023/07/06 18:15:23;;;;;;;2.55;1.52;;;;;;;24.16;51.77;100750.03;8283513;28;20038;-65
2023/07/06 18:19:23;;;;;;;2.85;1.10;;;;;;;24.08;52.00;100750.31;8282210;28;20359;-65
2023/07/06 18:23:24;;;;;;;4.03;1.10;;;;;;;24.02;53.54;100754.81;8283153;28;20066;-65
2023/07/06 18:27:24;;;;;;;3.72;1.08;;;;;;;23.83;53.20;100747.47;8282897;28;20060;-65
2023/07/06 18:31:25;;;;;;;2.28;1.40;;;;;;;23.73;53.41;100751.75;8283441;28;20042;-65
2023/07/06 18:35:25;;;;;;;2.00;1.10;;;;;;;23.55;54.02;100746.97;8285035;28;20045;-65
2023/07/06 18:39:26;;;;;;;3.20;1.13;;;;;;;23.38;54.36;100747.66;8286532;28;20065;-65
2023/07/06 18:43:28;;;;;;;6.38;1.42;;;;;;;23.39;54.33;100752.13;8287515;28;20318;-65
2023/07/06 18:47:29;;;;;;;3.35;1.00;;;;;;;23.33;54.48;100758.50;8282622;28;20033;-65
2023/07/06 18:51:31;;;;;;;3.47;1.13;;;;;;;23.26;54.93;100760.47;8286750;28;20045;-65
2023/07/06 18:55:31;;;;;;;5.35;1.63;;;;;;;23.11;55.44;100749.63;8287596;28;20290;-64
2023/07/06 18:59:34;;;;;;;4.28;1.30;;;;;;;23.00;55.95;100758.56;8286991;28;20037;-66
2023/07/06 19:03:35;;;;;;;3.17;1.30;;;;;;;22.97;56.19;100770.03;8279670;28;20121;-65